23 de maio de 2022

Tempo Código Clima Temp. Visão Nuvens Vento METAR/SPECI
10:20
V
18 °C 10 km+ - 120°   120° 9 kt METAR EDLP 230820Z 12009KT 090V150 CAVOK 18/08 Q1005
09:50
V
17 °C 10 km+ - 120°   120° 7 kt METAR EDLP 230750Z 12007KT 090V160 CAVOK 17/08 Q1005
09:20
V
16 °C 10 km+ - 120°   120° 9 kt METAR EDLP 230720Z 12009KT 090V150 CAVOK 16/08 Q1005
08:50
V
15 °C 10 km+ - 120°   120° 9 kt METAR EDLP 230650Z 12009KT 080V150 CAVOK 15/08 Q1006
08:20
V
15 °C 10 km+ - 110°   110° 10 kt METAR EDLP 230620Z 11010KT CAVOK 15/08 Q1006
07:50
V
15 °C 10 km+ - 120°   120° 9 kt METAR EDLP 230550Z 12009KT 090V150 CAVOK 15/07 Q1006
07:20
V
14 °C 10 km+ - 120°   120° 10 kt METAR EDLP 230520Z 12010KT CAVOK 14/07 Q1007
06:50
V
14 °C 10 km+ - 130°   130° 9 kt METAR EDLP 230450Z 13009KT CAVOK 14/07 Q1007
06:20
V
14 °C 10 km+ - 130°   130° 6 kt METAR EDLP 230420Z 13006KT CAVOK 14/07 Q1008
05:50
V
14 °C 10 km+ - 120°   120° 5 kt METAR EDLP 230350Z 12005KT 100V160 CAVOK 14/07 Q1008
05:20
V
14 °C 10 km+ - 140°   140° 5 kt METAR EDLP 230320Z 14005KT CAVOK 14/07 Q1008
04:50
V
14 °C 10 km+ - 140°   140° 8 kt METAR EDLP 230250Z 14008KT CAVOK 14/07 Q1009
04:20
V
14 °C 10 km+ - 130°   130° 8 kt METAR EDLP 230220Z 13008KT 100V160 CAVOK 14/07 Q1009
03:50
V
14 °C 10 km+ - 120°   120° 10 kt METAR EDLP 230150Z 12010KT CAVOK 14/07 Q1009
03:20
V
14 °C 10 km+ - 110°   110° 7 kt METAR EDLP 230120Z 11007KT 080V140 CAVOK 14/07 Q1009
02:50
V
14 °C 10 km+ - 120°   120° 7 kt METAR EDLP 230050Z 12007KT CAVOK 14/07 Q1010
02:20
V
14 °C 10 km+ - 120°   120° 7 kt METAR EDLP 230020Z 12007KT CAVOK 14/07 Q1010
01:50
V
13 °C 10 km+ - 120°   120° 8 kt METAR EDLP 222350Z 12008KT CAVOK 13/07 Q1010
01:20
V
13 °C 10 km+ - 110°   110° 8 kt METAR EDLP 222320Z 11008KT CAVOK 13/07 Q1010
00:50
V
13 °C 10 km+ - 120°   120° 7 kt METAR EDLP 222250Z 12007KT CAVOK 13/07 Q1011
00:20
V
13 °C 10 km+ - 120°   120° 5 kt METAR EDLP 222220Z 12005KT 090V160 CAVOK 13/07 Q1011

22 de maio de 2022

Tempo Código Clima Temp. Visão Nuvens Vento METAR/SPECI
23:50
V
13 °C 10 km+ - 110°   110° 5 kt METAR EDLP 222150Z 11005KT CAVOK 13/07 Q1011
23:20
V
14 °C 10 km+ - 100°   100° 5 kt METAR EDLP 222120Z 10005KT 050V130 CAVOK 14/08 Q1011
22:50
V
14 °C 10 km+ - 090°   090° 4 kt METAR EDLP 222050Z 09004KT CAVOK 14/08 Q1012
22:20
V
14 °C 10 km+ - 090°   090° 4 kt METAR EDLP 222020Z 09004KT CAVOK 14/08 Q1012
21:50
V
15 °C 10 km+ - 080°   080° 5 kt METAR EDLP 221950Z 08005KT CAVOK 15/08 Q1012
21:20
V
15 °C 10 km+ - 070°   070° 5 kt METAR EDLP 221920Z 07005KT CAVOK 15/08 Q1012
20:50
V
17 °C 10 km+ - 080°   080° 5 kt METAR EDLP 221850Z 08005KT CAVOK 17/08 Q1012
20:20
V
17 °C 10 km+ - 080°   080° 5 kt METAR EDLP 221820Z 08005KT CAVOK 17/07 Q1013
19:50
V
18 °C 10 km+ - 060°   060° 5 kt METAR EDLP 221750Z 06005KT 020V110 CAVOK 18/08 Q1013
19:20
V
18 °C 10 km+ - 050°   050° 4 kt METAR EDLP 221720Z 05004KT 020V090 CAVOK 18/07 Q1013
18:50
V
19 °C 10 km+ - 350°   350° 4 kt METAR EDLP 221650Z 35004KT 310V040 CAVOK 19/07 Q1014
18:20
V
18 °C 10 km+ - 330°   330° 3 kt METAR EDLP 221620Z 33003KT 230V040 CAVOK 18/06 Q1014
17:50
V
18 °C 10 km+ - 310°   310° 4 kt METAR EDLP 221550Z 31004KT 250V360 9999 FEW048 18/06 Q1014
17:20
V
18 °C 10 km+ - Var   Var 3 kt METAR EDLP 221520Z VRB03KT 9999 SCT047 18/07 Q1014
16:50
V
19 °C 10 km+ - Var   Var 5 kt METAR EDLP 221450Z VRB05KT CAVOK 19/07 Q1015
16:20
V
18 °C 10 km+ - 320°   320° 5 kt METAR EDLP 221420Z 32005KT 250V020 9999 FEW045 18/07 Q1015
15:50
V
18 °C 10 km+ - 300°   300° 5 kt METAR EDLP 221350Z 30005KT 230V360 9999 FEW042 18/07 Q1015
15:20
V
18 °C 10 km+ - 360°   360° 5 kt METAR EDLP 221320Z 36005KT 280V070 9999 FEW041 18/06 Q1015
14:50
V
17 °C 10 km+ - Var   Var 5 kt METAR EDLP 221250Z VRB05KT 9999 FEW040 17/06 Q1015
14:20
V
18 °C 10 km+ - 010°   010° 4 kt METAR EDLP 221220Z 01004KT 290V090 9999 FEW038 18/07 Q1016
13:50
V
17 °C 10 km+ - Var   Var 4 kt METAR EDLP 221150Z VRB04KT 9999 FEW034 17/07 Q1016
13:20
V
17 °C 10 km+ - Var   Var 4 kt METAR EDLP 221120Z VRB04KT 9999 FEW035 17/07 Q1016
12:50
V
16 °C 10 km+ - Var   Var 6 kt METAR EDLP 221050Z VRB06KT 9999 FEW031 16/07 Q1017
12:20
V
16 °C 10 km+ - Var   Var 5 kt METAR EDLP 221020Z VRB05KT CAVOK 16/08 Q1017
11:50
V
16 °C 10 km+ - Var   Var 5 kt METAR EDLP 220950Z VRB05KT 9999 FEW042 16/09 Q1017
11:20
V
15 °C 10 km+ - 320°   320° 5 kt METAR EDLP 220920Z 32005KT 260V050 9999 FEW042 15/07 Q1017
10:50
V
14 °C 10 km+ 4.000 ft 340°   340° 4 kt METAR EDLP 220850Z 34004KT 280V070 9999 BKN040 14/07 Q1018
10:20
V
14 °C 10 km+ - 310°   310° 4 kt METAR EDLP 220820Z 31004KT 270V360 9999 SCT042 14/07 Q1018
09:50
V
13 °C 10 km+ - 350°   350° 3 kt METAR EDLP 220750Z 35003KT 290V040 CAVOK 13/07 Q1018
09:20
V
13 °C 10 km+ - Var   Var 2 kt METAR EDLP 220720Z VRB02KT CAVOK 13/07 Q1018
08:50
V
13 °C 10 km+ - 100°   100° 3 kt METAR EDLP 220650Z 10003KT 060V150 CAVOK 13/07 Q1018
08:20
V
12 °C 10 km+ - Var   Var 2 kt METAR EDLP 220620Z VRB02KT CAVOK 12/07 Q1018
07:50
V
10 °C 10 km+ - Var   Var 1 kt METAR EDLP 220550Z VRB01KT CAVOK 10/08 Q1018
07:20
V
9 °C 10 km+ - Var   Var 2 kt METAR EDLP 220520Z VRB02KT CAVOK 09/07 Q1018
06:50
V
8 °C 10 km+ - Var   Var 1 kt METAR EDLP 220450Z VRB01KT CAVOK 08/07 Q1018
06:20
V
7 °C 10 km+ - Var   Var 2 kt METAR EDLP 220420Z VRB02KT 9999 FEW037 07/06 Q1018
05:50
V
7 °C 10 km+ - Var   Var 2 kt METAR EDLP 220350Z VRB02KT 9999 FEW044 07/06 Q1018
05:20
V
8 °C 10 km+ - Var   Var 2 kt METAR EDLP 220320Z VRB02KT 9999 FEW039 08/07 Q1018
04:50
V
8 °C 10 km+ - Var   Var 1 kt METAR EDLP 220250Z VRB01KT CAVOK 08/06 Q1019
04:20
V
8 °C 10 km+ - Var   Var 2 kt METAR EDLP 220220Z VRB02KT CAVOK 08/06 Q1018
03:50
V
9 °C 10 km+ - Var   Var 2 kt METAR EDLP 220150Z VRB02KT 9999 FEW048 09/07 Q1019
03:20
V
8 °C 10 km+ - Var   Var 2 kt METAR EDLP 220120Z VRB02KT 9999 FEW047 08/07 Q1019
02:50
V
10 °C 10 km+ 4.200 ft 190°   190° 3 kt METAR EDLP 220050Z 19003KT 9999 BKN042 10/08 Q1019
02:20
V
9 °C 10 km+ 4.200 ft 210°   210° 3 kt METAR EDLP 220020Z 21003KT 9999 BKN042 09/07 Q1019
01:50
V
10 °C 10 km+ - Var   Var 2 kt METAR EDLP 212350Z VRB02KT 9999 SCT045 10/07 Q1019
01:20
V
10 °C 10 km+ 4.400 ft 310°   310° 2 kt METAR EDLP 212320Z 31002KT 9999 BKN044 10/07 Q1019
00:50
V
11 °C 10 km+ - 250°   250° 4 kt METAR EDLP 212250Z 25004KT 9999 SCT042 11/08 Q1020
00:20
V
11 °C 10 km+ - 240°   240° 5 kt METAR EDLP 212220Z 24005KT 9999 FEW045 11/08 Q1020

21 de maio de 2022

Tempo Código Clima Temp. Visão Nuvens Vento METAR/SPECI
23:50
V
11 °C 10 km+ - 230°   230° 5 kt METAR EDLP 212150Z 23005KT CAVOK 11/08 Q1020
23:20
V
11 °C 10 km+ - 240°   240° 4 kt METAR EDLP 212120Z 24004KT CAVOK 11/08 Q1020
22:50
V
12 °C 10 km+ - 230°   230° 4 kt METAR EDLP 212050Z 23004KT 9999 FEW041 12/08 Q1020
22:20
V
12 °C 10 km+ - 230°   230° 4 kt METAR EDLP 212020Z 23004KT CAVOK 12/08 Q1020
21:50
V
12 °C 10 km+ - 240°   240° 4 kt METAR EDLP 211950Z 24004KT 9999 SCT042 12/08 Q1020
21:20
V
14 °C 10 km+ - 240°   240° 3 kt METAR EDLP 211920Z 24003KT 9999 SCT043 14/08 Q1020
20:50
V
15 °C 10 km+ - 260°   260° 4 kt METAR EDLP 211850Z 26004KT 230V290 CAVOK 15/07 Q1020
20:20
V
15 °C 10 km+ - 250°   250° 6 kt METAR EDLP 211820Z 25006KT 220V330 CAVOK 15/07 Q1020
19:50
V
15 °C 10 km+ - 260°   260° 6 kt METAR EDLP 211750Z 26006KT 210V330 CAVOK 15/07 Q1020
19:20
V
16 °C 10 km+ - 270°   270° 7 kt METAR EDLP 211720Z 27007KT 220V320 CAVOK 16/07 Q1020
18:50
V
16 °C 10 km+ - 250°   250° 8 kt METAR EDLP 211650Z 25008KT 200V300 9999 FEW037 16/07 Q1020
18:20
V
16 °C 10 km+ - 260°   260° 8 kt METAR EDLP 211620Z 26008KT 220V310 9999 FEW039 16/08 Q1020
17:50
V
16 °C 10 km+ - 270°   270° 6 kt METAR EDLP 211550Z 27006KT 220V310 9999 FEW034 16/07 Q1020
17:20
V
15 °C 10 km+ - 260°   260° 9 kt METAR EDLP 211520Z 26009KT 210V320 9999 FEW035 15/07 Q1020
16:50
V
16 °C 10 km+ - 270°   270° 10 kt METAR EDLP 211450Z 27010KT 220V330 9999 FEW035 16/08 Q1021
16:20
V
16 °C 10 km+ - 260°   260° 10 kt METAR EDLP 211420Z 26010KT 220V310 9999 FEW046 16/07 Q1021
15:50
V
15 °C 10 km+ - 250°   250° 12 kt METAR EDLP 211350Z 25012KT 210V310 9999 FEW034 15/07 Q1021
15:20
V
16 °C 10 km+ - 250°   250° 10 kt METAR EDLP 211320Z 25010KT 220V300 9999 FEW032 16/08 Q1021
14:50
V
15 °C 10 km+ - 260°   260° 10 kt METAR EDLP 211250Z 26010KT 200V300 9999 SCT032 15/08 Q1021
14:20
V
16 °C 10 km+ - 260°   260° 11 21 kt METAR EDLP 211220Z 26011G21KT 220V320 9999 SCT032 SCT036 16/09 Q1021
13:50
V
14 °C 10 km+ - 260°   260° 12 kt METAR EDLP 211150Z 26012KT 230V310 9999 SCT027 14/07 Q1021
13:20
V
15 °C 10 km+ - 260°   260° 12 kt METAR EDLP 211120Z 26012KT 220V320 9999 SCT027 15/09 Q1021
12:50
V
15 °C 10 km+ - 250°   250° 13 kt METAR EDLP 211050Z 25013KT 220V280 9999 FEW021 15/09 Q1021
12:20
V
13 °C 10 km+ - 240°   240° 13 kt METAR EDLP 211020Z 24013KT 220V280 9999 FEW047 13/09 Q1021
11:50
V
13 °C 10 km+ - 240°   240° 11 kt METAR EDLP 210950Z 24011KT 9999 FEW021 SCT046 13/08 Q1021
11:20
V
13 °C 10 km+ 4.600 ft 250°   250° 15 kt METAR EDLP 210920Z 25015KT 9999 FEW021 BKN046 13/08 Q1020
10:50
V
13 °C 10 km+ 4.000 ft 240°   240° 13 kt METAR EDLP 210850Z 24013KT 210V280 9999 FEW020 BKN040 13/08 Q1020
Dados mais antigos

Baixe nosso aplicativo

Fácil acesso a todas as condições meteorológicas da aviação no seu celular e no seu tablet.
Com muitos recursos não disponíveis no site, como suporte offline e uma lista pessoal de aeroportos.

Nós e terceiros acompanhamos seu comportamento na internet em nosso site com cookies. Se você continuar, nós assumimos que você concorda com nossa política de cookies. Saiba mais